LSZALFLB

Guest
Details From LSZA - Lugano
To LFLB - Aix-Les-Bains
Flight Number -
Tags generated
Created
Modified
Stats Distance 129 nm / 238 km
Max Altitude 16,000 ft / 4,877 m
Waypoints 3
Social Downloads 2
Likes 0
Share VATSIM

Download

Looking for another format? Having issues loading an existing format? Contact us
Advertisement - Login to hide

Notes

Basic altitude profile: - Ascent Rate: 2500ft/min - Ascent Speed: 250kts - Cruise Altitude: 35000ft - Cruise Speed: 420kts - Descent Rate: 1500ft/min - Descent Speed: 250kts

Route

LSZA GARLO LFLB

ID Type Via Altitude Latitude Longitude Leg Dist Tot Dist Heading (true) Name
O LSZA APT - 0 ft / 0 m 46.00427˚ 8.91058˚ - 0 nm - Lugano
GARLO FIX - 16,000 ft / 4,877 m 45.87444˚ 7.75028˚ 49 nm 49 nm 261° / 260° -
O LFLB APT - 0 ft / 0 m 45.63623˚ 5.88090˚ 79 nm 128 nm 260° / 259° Aix-Les-Bains

Altitude Profile

Advertisement - Login to hide

LSZA

Details ICAO LSZA (LUG)
Name Lugano
Region Switzerland
Timezone Europe/Zurich (UTC+1.0)
Stats Elevation 915 ft / 279 m (AMSL)
Location 46.004275° 8.910579°
Runways 1
Magnetic Variation 2.424° E

METAR

LSZA 141650Z VRB01KT 9999 BKN120 03/00 Q1004 NOSIG

Decode

TAF

Not found

Departure Runways

ID Width Length Bearing (true) Bearing (mag) Surface Threshold Offset Overrun Length
01 98 ft / 30 m 4,430 ft / 1,350 m 18.79° 16.37° Asphalt 361 ft / 110 m 0 ft / 0 m
19 98 ft / 30 m 4,430 ft / 1,350 m 198.79° 196.37° Asphalt 673 ft / 205 m 0 ft / 0 m

LFLB

Details ICAO LFLB (CMF)
Name Aix-Les-Bains
Region France
Timezone Europe/Paris (UTC+1.0)
Stats Elevation 779 ft / 237 m (AMSL)
Location 45.636234° 5.880898°
Runways 2
Magnetic Variation 1.690° E

METAR

LFLB 141700Z AUTO 20009KT 9999 OVC066 10/03 Q1004 TEMPO 18015G25KT

Decode

TAF

TAF TAF LFLB 141100Z 1412/1512 18012KT 9999 BKN050 TEMPO 1418/1502 18015G25KT PROB40 TEMPO 1422/1501 18020G35KT TEMPO 1423/1506 4000 SHRA BKN014 SCT025TCU PROB40 TEMPO 1500/1503 1500 SHSN OVC005 SCT025CB BECMG 1507/1509 CAVOK

Decode

Destination Runways

ID Width Length Bearing (true) Bearing (mag) Surface Threshold Offset Overrun Length
18 148 ft / 45 m 5,452 ft / 1,662 m 176.72° 175.03° Asphalt 26 ft / 8 m 774 ft / 236 m
18L 197 ft / 60 m 2,309 ft / 704 m 176.70° 175.01° Grass 0 ft / 0 m 0 ft / 0 m
36 148 ft / 45 m 5,452 ft / 1,662 m 356.72° 355.03° Asphalt 23 ft / 7 m 456 ft / 139 m
36R 197 ft / 60 m 2,309 ft / 704 m 356.70° 355.01° Grass 315 ft / 96 m 0 ft / 0 m

Approach Navaids

Runway Type Ident Frequency Range Bearing (true) Bearing (mag) Slope Elevation
18 Localiser CY 109.50 MHz 27 nm / 50 km 176.73° 175.04° - 779 ft / 237 m (AMSL)
18 Glidescope CY 109.50 MHz 27 nm / 50 km 176.73° 175.04° 4.46° 779 ft / 237 m (AMSL)
18 DME CY 109.50 MHz 27 nm / 50 km - - - 779 ft / 237 m (AMSL)